Time;durP1;ratioP1;P1;durP2;ratioP2;P2;SDS_P1;SDS_P2;PMS_P1;PMS_P2;Temp;Humidity;BMP_temperature;BMP_pressure;BME280_temperature;BME280_humidity;BME280_pressure;Samples;Min_cycle;Max_cycle;Signal;HPM_P1;HPM_P2
2022/03/09 00:02:17;;;;;;;40.60;23.30;;;;;;;2.33;80.25;100221.97;5010031;28;20059;-20
2022/03/09 00:04:43;;;;;;;51.60;30.83;;;;;;;2.31;80.28;100196.78;5028202;28;20063;-20
2022/03/09 00:07:08;;;;;;;39.65;22.90;;;;;;;2.30;80.24;100195.16;5009861;28;20068;-20
2022/03/09 00:09:34;;;;;;;38.13;21.58;;;;;;;2.37;79.86;100194.34;5028032;28;20576;-20
2022/03/09 00:12:00;;;;;;;41.22;25.17;;;;;;;2.34;79.44;100196.47;5009833;28;20029;-22
2022/03/09 00:14:25;;;;;;;40.00;24.73;;;;;;;2.26;79.90;100189.38;5027826;28;20029;-20
2022/03/09 00:16:50;;;;;;;37.63;21.58;;;;;;;2.28;80.20;100207.66;5009439;28;20179;-20
2022/03/09 00:19:16;;;;;;;36.22;21.90;;;;;;;2.49;79.27;100199.28;5028023;28;20185;-20
2022/03/09 00:21:42;;;;;;;51.75;33.50;;;;;;;2.79;77.52;100206.53;5009928;28;20040;-20
2022/03/09 00:24:07;;;;;;;46.72;27.73;;;;;;;2.63;78.01;100201.28;5010170;28;20486;-20
2022/03/09 00:26:33;;;;;;;45.63;30.58;;;;;;;2.45;78.21;100185.63;5010070;28;20033;-20
2022/03/09 00:28:58;;;;;;;44.78;30.73;;;;;;;2.62;77.70;100202.28;5009645;28;20025;-20
2022/03/09 00:31:24;;;;;;;40.55;25.90;;;;;;;2.87;76.70;100207.53;5009688;28;20052;-21
2022/03/09 00:33:49;;;;;;;41.20;23.30;;;;;;;2.92;76.13;100205.22;5027978;28;20548;-20
2022/03/09 00:36:15;;;;;;;40.83;22.23;;;;;;;3.00;75.40;100207.84;5031764;28;20467;-20
2022/03/09 00:38:40;;;;;;;36.53;20.98;;;;;;;2.86;75.71;100200.63;5016473;28;20029;-20
2022/03/09 00:41:05;;;;;;;33.63;18.13;;;;;;;2.84;76.12;100197.31;5016226;28;20037;-20
2022/03/09 00:43:31;;;;;;;35.42;18.77;;;;;;;3.10;75.06;100195.31;5034456;28;20037;-26
2022/03/09 00:45:56;;;;;;;34.28;19.25;;;;;;;3.10;74.75;100191.88;5016206;28;20409;-20
2022/03/09 00:48:22;;;;;;;35.58;19.75;;;;;;;3.04;74.79;100188.09;5034348;28;20048;-20
2022/03/09 00:50:47;;;;;;;47.78;24.33;;;;;;;2.92;74.02;100179.72;5016052;28;20041;-22
2022/03/09 00:53:13;;;;;;;37.75;19.70;;;;;;;2.81;74.99;100167.69;5034294;28;20065;-20
2022/03/09 00:55:39;;;;;;;41.53;22.30;;;;;;;2.97;74.36;100187.94;4999780;28;20079;-20
2022/03/09 00:58:05;;;;;;;36.45;19.70;;;;;;;2.77;75.16;100187.44;5016109;28;20037;-20
2022/03/09 01:00:30;;;;;;;38.78;19.83;;;;;;;2.88;74.66;100188.09;4999551;28;20091;-19
2022/03/09 01:02:55;;;;;;;36.88;19.50;;;;;;;2.95;73.60;100189.09;5033839;28;20033;-20
2022/03/09 01:05:21;;;;;;;42.65;20.90;;;;;;;2.88;73.87;100182.84;5016423;28;20382;-20
2022/03/09 01:07:46;;;;;;;40.60;21.15;;;;;;;2.75;73.88;100186.78;5016213;28;20025;-21
2022/03/09 01:10:12;;;;;;;38.78;20.85;;;;;;;2.65;74.00;100180.88;5034046;28;20037;-20
2022/03/09 01:12:38;;;;;;;46.00;28.42;;;;;;;2.18;76.02;100181.47;5033493;28;20593;-20
2022/03/09 01:15:03;;;;;;;33.50;18.65;;;;;;;2.50;75.56;100183.34;5015417;28;20481;-21
2022/03/09 01:17:29;;;;;;;34.65;18.95;;;;;;;2.50;75.65;100180.69;5033579;28;20537;-20
2022/03/09 01:19:54;;;;;;;44.90;26.10;;;;;;;2.45;75.65;100192.69;5033997;28;20075;-20
2022/03/09 01:22:20;;;;;;;40.05;22.00;;;;;;;2.53;75.71;100184.81;5015897;28;20102;-20
2022/03/09 01:24:47;;;;;;;41.50;21.05;;;;;;;2.52;75.76;100193.72;5033575;28;20053;-20
2022/03/09 01:27:12;;;;;;;40.83;20.50;;;;;;;2.41;75.79;100169.34;5033621;28;20060;-20
2022/03/09 01:29:38;;;;;;;34.20;19.55;;;;;;;2.64;75.15;100176.59;5015617;28;20037;-20
2022/03/09 01:32:03;;;;;;;34.33;18.10;;;;;;;2.22;75.78;100169.63;5034180;28;20037;-20
2022/03/09 01:34:29;;;;;;;38.42;18.13;;;;;;;2.36;76.05;100183.97;5033650;28;20104;-20
2022/03/09 01:36:54;;;;;;;33.83;18.10;;;;;;;2.31;75.83;100175.72;5033450;28;20022;-20
2022/03/09 01:39:20;;;;;;;33.13;18.13;;;;;;;2.17;76.07;100175.41;5033520;28;20053;-20
2022/03/09 01:41:46;;;;;;;32.72;17.80;;;;;;;2.37;75.76;100181.19;5033551;28;20033;-20
2022/03/09 01:44:12;;;;;;;32.33;17.88;;;;;;;2.24;76.70;100178.19;5015603;28;20037;-20
2022/03/09 01:46:38;;;;;;;38.10;18.88;;;;;;;2.45;75.85;100183.00;5015087;28;20025;-20
2022/03/09 01:49:04;;;;;;;35.63;18.23;;;;;;;2.46;75.39;100173.31;5029683;28;20041;-20
2022/03/09 01:51:35;;;;;;;36.05;19.02;;;;;;;2.54;75.26;100178.56;5012664;28;20033;-20
2022/03/09 01:54:00;;;;;;;34.85;18.52;;;;;;;2.58;75.17;100177.25;5013308;28;20037;-21
2022/03/09 01:56:26;;;;;;;35.47;18.25;;;;;;;2.49;75.24;100172.97;5012706;28;20060;-20
2022/03/09 01:58:51;;;;;;;35.83;17.45;;;;;;;2.38;75.23;100176.75;5030020;28;20061;-21
2022/03/09 02:01:17;;;;;;;33.35;18.75;;;;;;;2.20;76.04;100168.97;5030667;28;20048;-20
2022/03/09 02:03:42;;;;;;;35.63;19.23;;;;;;;2.27;75.67;100159.47;5030290;28;20033;-20
2022/03/09 02:06:08;;;;;;;38.30;19.77;;;;;;;2.39;75.11;100173.09;5012297;28;20033;-21
2022/03/09 02:11:18;;;;;;;42.78;21.80;;;;;;;2.03;76.82;100162.06;5030161;28;20037;-20
2022/03/09 02:13:44;;;;;;;41.15;21.17;;;;;;;1.97;77.16;100177.47;5012424;28;20065;-20
2022/03/09 02:16:13;;;;;;;43.85;21.73;;;;;;;1.95;76.79;100174.19;5029934;28;20383;-20
2022/03/09 02:18:39;;;;;;;44.78;23.20;;;;;;;1.76;77.99;100177.09;5011999;28;20480;-21
2022/03/09 02:21:04;;;;;;;38.90;20.08;;;;;;;1.67;78.91;100175.41;5029920;28;20481;-20
2022/03/09 02:23:30;;;;;;;44.72;21.40;;;;;;;1.77;78.12;100184.81;5012247;28;20033;-20
2022/03/09 02:25:55;;;;;;;38.03;19.05;;;;;;;1.74;78.88;100176.44;5011641;28;20036;-20
2022/03/09 02:28:21;;;;;;;48.05;21.95;;;;;;;1.79;78.94;100171.50;5029878;28;20041;-20
2022/03/09 02:30:46;;;;;;;39.75;20.00;;;;;;;1.69;79.69;100176.06;5030088;28;20409;-20
2022/03/09 02:33:11;;;;;;;41.53;20.33;;;;;;;1.71;79.11;100174.91;5029309;28;20044;-22
2022/03/09 02:35:37;;;;;;;37.83;19.15;;;;;;;1.93;77.20;100160.38;5029595;28;20030;-21
2022/03/09 02:38:03;;;;;;;38.95;18.75;;;;;;;1.94;77.70;100159.41;5029764;28;20067;-20
2022/03/09 02:40:28;;;;;;;43.10;20.67;;;;;;;1.84;78.55;100189.44;5029386;28;20126;-20
2022/03/09 02:42:53;;;;;;;43.10;22.00;;;;;;;1.63;79.58;100187.22;5029831;28;20036;-20
2022/03/09 02:45:19;;;;;;;46.17;24.58;;;;;;;2.06;78.04;100190.66;5029581;28;20406;-20
2022/03/09 02:47:45;;;;;;;39.65;21.70;;;;;;;1.88;78.55;100186.34;5029517;28;20102;-20
2022/03/09 02:50:13;;;;;;;46.40;27.95;;;;;;;1.77;79.28;100184.00;5029392;28;20034;-20
2022/03/09 02:52:39;;;;;;;38.92;20.75;;;;;;;2.01;78.13;100181.44;5029425;28;20579;-21
2022/03/09 02:55:06;;;;;;;36.15;18.67;;;;;;;2.04;77.83;100164.50;5028689;28;20183;-20
2022/03/09 02:57:32;;;;;;;35.28;18.70;;;;;;;2.35;76.31;100154.22;5029340;28;20098;-20
2022/03/09 02:59:57;;;;;;;39.15;21.35;;;;;;;2.09;76.21;100145.63;5028881;28;20037;-20
2022/03/09 03:02:23;;;;;;;39.88;20.77;;;;;;;2.27;76.30;100163.88;5029237;28;20405;-20
2022/03/09 03:04:48;;;;;;;39.63;19.90;;;;;;;2.13;77.33;100170.63;5028837;28;20026;-20
2022/03/09 03:07:13;;;;;;;40.35;20.35;;;;;;;2.15;77.29;100171.28;5028731;28;20025;-20
2022/03/09 03:09:39;;;;;;;39.15;19.38;;;;;;;2.18;77.32;100176.22;5029176;28;20033;-21
2022/03/09 03:12:05;;;;;;;40.75;21.75;;;;;;;2.09;77.67;100177.19;5028762;28;20033;-20
2022/03/09 03:14:30;;;;;;;42.92;21.13;;;;;;;2.49;76.70;100173.78;5029093;28;20572;-20
2022/03/09 03:16:55;;;;;;;39.75;20.67;;;;;;;2.45;76.66;100183.00;5028506;28;20492;-21
2022/03/09 03:19:21;;;;;;;39.63;20.88;;;;;;;2.44;76.20;100177.91;5028711;28;20472;-21
2022/03/09 03:21:46;;;;;;;41.95;21.58;;;;;;;2.03;78.01;100183.09;5028562;28;20115;-20
2022/03/09 03:24:12;;;;;;;39.83;20.70;;;;;;;2.19;78.17;100167.34;5028385;28;20033;-21
2022/03/09 03:26:37;;;;;;;42.05;20.33;;;;;;;2.13;78.43;100184.59;5028692;28;20394;-21
2022/03/09 03:29:03;;;;;;;40.05;19.80;;;;;;;1.89;79.22;100174.81;5028185;28;20036;-21
2022/03/09 03:31:31;;;;;;;43.40;22.13;;;;;;;2.04;78.87;100176.84;5028637;28;20069;-21
2022/03/09 03:33:57;;;;;;;41.65;21.52;;;;;;;1.81;79.67;100180.06;5028285;28;20136;-20
2022/03/09 03:36:22;;;;;;;41.30;20.88;;;;;;;1.81;80.20;100183.50;5010660;28;20425;-21
2022/03/09 03:38:48;;;;;;;44.88;21.95;;;;;;;1.83;80.12;100177.28;5027795;28;20029;-21
2022/03/09 03:41:13;;;;;;;40.75;21.00;;;;;;;1.67;80.99;100183.28;5028452;28;20034;-21
2022/03/09 03:43:39;;;;;;;41.33;21.38;;;;;;;1.43;81.49;100170.84;5028075;28;20044;-20
2022/03/09 03:46:04;;;;;;;37.92;20.02;;;;;;;1.83;80.86;100182.53;5010609;28;20540;-20
2022/03/09 03:48:30;;;;;;;39.60;20.25;;;;;;;1.90;79.92;100171.22;5028132;28;20030;-20
2022/03/09 03:50:55;;;;;;;43.42;21.27;;;;;;;1.82;80.02;100160.69;5010035;28;20258;-20
2022/03/09 03:53:21;;;;;;;40.70;20.88;;;;;;;2.11;79.95;100177.84;5028358;28;20065;-20
2022/03/09 03:55:46;;;;;;;40.88;20.73;;;;;;;2.19;79.59;100167.34;5028199;28;20084;-21
2022/03/09 03:58:12;;;;;;;38.33;20.25;;;;;;;2.20;79.50;100167.16;5028227;28;20026;-21
2022/03/09 04:00:37;;;;;;;38.92;19.65;;;;;;;2.08;79.22;100165.00;5028013;28;20068;-20
2022/03/09 04:03:03;;;;;;;39.90;20.20;;;;;;;2.24;79.03;100174.75;5027730;28;20048;-20
2022/03/09 04:05:29;;;;;;;40.33;21.08;;;;;;;2.21;78.70;100165.38;5027993;28;20034;-20
2022/03/09 04:07:54;;;;;;;37.97;19.85;;;;;;;1.97;79.79;100166.97;5009857;28;20083;-20
2022/03/09 04:10:20;;;;;;;41.83;20.85;;;;;;;2.22;78.91;100164.38;5027258;28;20029;-20
2022/03/09 04:12:45;;;;;;;39.35;21.83;;;;;;;2.20;78.71;100163.72;5027629;28;20524;-20
2022/03/09 04:15:10;;;;;;;42.60;21.45;;;;;;;2.18;79.17;100157.78;5027670;28;20114;-20
2022/03/09 04:17:44;;;;;;;41.40;21.52;;;;;;;1.97;79.80;100174.84;5027754;28;20048;-21
2022/03/09 04:20:10;;;;;;;43.60;21.77;;;;;;;2.04;80.12;100180.28;5010180;28;20059;-20
2022/03/09 04:22:36;;;;;;;40.60;20.52;;;;;;;2.14;79.54;100183.59;4993536;28;20036;-21
2022/03/09 04:25:02;;;;;;;42.22;22.10;;;;;;;2.18;79.57;100176.22;5009913;28;20052;-20
2022/03/09 04:27:28;;;;;;;42.40;22.33;;;;;;;2.41;78.50;100177.25;5027523;28;20436;-20
2022/03/09 04:29:53;;;;;;;43.70;22.05;;;;;;;2.50;78.41;100172.00;5010092;28;20059;-20
2022/03/09 04:32:19;;;;;;;38.55;21.88;;;;;;;2.17;78.97;100169.31;5028084;28;20924;-20
2022/03/09 04:34:44;;;;;;;39.38;20.13;;;;;;;2.08;79.30;100184.25;5027615;28;20029;-20
2022/03/09 04:37:10;;;;;;;40.70;21.30;;;;;;;1.87;79.33;100163.63;5027282;28;20045;-21
2022/03/09 04:39:35;;;;;;;39.20;21.60;;;;;;;1.95;79.06;100170.75;5027883;28;20513;-21
2022/03/09 04:42:01;;;;;;;44.30;23.27;;;;;;;2.10;79.11;100186.72;5027811;28;20029;-20
2022/03/09 04:44:26;;;;;;;51.30;23.90;;;;;;;1.93;79.85;100183.22;5008456;28;20033;-20
2022/03/09 04:46:52;;;;;;;44.53;22.17;;;;;;;1.79;80.75;100182.84;5027241;28;20037;-21
2022/03/09 04:49:17;;;;;;;44.17;22.90;;;;;;;1.76;80.85;100187.63;5027447;28;20037;-21
2022/03/09 04:51:42;;;;;;;43.58;23.08;;;;;;;1.65;81.38;100190.50;5009459;28;20037;-20
2022/03/09 04:54:08;;;;;;;42.75;22.00;;;;;;;1.36;82.05;100175.91;5009759;28;20029;-20
2022/03/09 04:56:33;;;;;;;47.47;23.42;;;;;;;1.73;81.43;100161.63;5027446;28;20491;-20
2022/03/09 04:58:59;;;;;;;52.30;24.27;;;;;;;1.76;81.92;100193.69;5027665;28;20029;-20
2022/03/09 05:01:24;;;;;;;46.40;23.20;;;;;;;1.76;81.42;100191.06;5027079;28;20040;-20
2022/03/09 05:03:50;;;;;;;43.95;23.63;;;;;;;1.78;81.53;100188.28;5009631;28;20033;-20
2022/03/09 05:06:16;;;;;;;46.67;24.17;;;;;;;1.66;81.81;100192.16;5027158;28;20040;-20
2022/03/09 05:08:42;;;;;;;46.22;25.73;;;;;;;1.70;82.18;100175.09;5027455;28;20116;-21
2022/03/09 05:11:07;;;;;;;46.70;24.58;;;;;;;1.77;81.03;100184.00;5027299;28;20060;-20
2022/03/09 05:13:33;;;;;;;49.33;24.75;;;;;;;1.78;81.67;100202.25;5027111;28;20433;-20
2022/03/09 05:15:58;;;;;;;47.58;24.50;;;;;;;1.83;81.67;100209.66;5027216;28;20061;-20
2022/03/09 05:18:24;;;;;;;49.47;24.42;;;;;;;1.52;83.04;100206.72;5009331;28;20034;-21
2022/03/09 05:20:49;;;;;;;46.10;23.05;;;;;;;1.28;83.83;100194.25;5027168;28;20071;-20
2022/03/09 05:23:14;;;;;;;50.17;23.55;;;;;;;1.26;84.67;100190.97;5012500;28;20044;-20
2022/03/09 05:25:40;;;;;;;53.70;26.73;;;;;;;1.36;84.61;100202.19;5031101;28;20595;-20
2022/03/09 05:28:05;;;;;;;53.25;25.90;;;;;;;1.34;84.58;100207.59;5013263;28;20044;-20
2022/03/09 05:30:31;;;;;;;53.95;26.88;;;;;;;1.59;84.34;100210.34;5031068;28;20034;-20
2022/03/09 05:32:57;;;;;;;54.05;25.05;;;;;;;1.84;82.85;100213.09;5030594;28;20037;-20
2022/03/09 05:35:22;;;;;;;56.50;25.73;;;;;;;1.93;82.08;100214.78;5030508;28;20032;-20
2022/03/09 05:37:48;;;;;;;46.15;23.25;;;;;;;1.70;82.55;100204.03;5030962;28;20448;-21
2022/03/09 05:40:13;;;;;;;46.90;23.50;;;;;;;1.41;83.71;100205.19;5030771;28;20429;-20
2022/03/09 05:42:39;;;;;;;47.97;23.10;;;;;;;1.48;84.03;100219.34;5030745;28;20034;-20
2022/03/09 05:45:05;;;;;;;48.83;23.73;;;;;;;1.53;83.35;100229.38;5012544;28;20391;-20
2022/03/09 05:47:31;;;;;;;54.22;25.60;;;;;;;1.65;84.33;100237.81;5030429;28;20033;-20
2022/03/09 05:49:56;;;;;;;52.25;26.35;;;;;;;1.78;83.30;100227.72;5030405;28;20509;-20
2022/03/09 05:52:22;;;;;;;54.83;25.83;;;;;;;1.82;82.69;100231.69;5030477;28;20048;-20
2022/03/09 05:54:47;;;;;;;48.35;23.92;;;;;;;1.63;83.67;100247.69;5030545;28;20029;-21
2022/03/09 05:57:13;;;;;;;54.05;25.60;;;;;;;1.62;83.52;100238.97;5030327;28;20029;-21
2022/03/09 05:59:38;;;;;;;54.38;26.08;;;;;;;1.78;83.32;100259.28;5012637;28;20025;-21
2022/03/09 06:02:04;;;;;;;49.35;23.80;;;;;;;1.67;83.11;100254.28;5030183;28;20040;-20
2022/03/09 06:04:29;;;;;;;55.58;25.48;;;;;;;1.64;83.32;100257.22;5030127;28;20044;-21
2022/03/09 06:06:55;;;;;;;54.20;26.63;;;;;;;1.77;84.18;100250.53;5029832;28;20040;-20
2022/03/09 06:09:20;;;;;;;53.58;25.20;;;;;;;1.59;84.06;100255.88;5030457;28;20048;-20
2022/03/09 06:11:46;;;;;;;55.03;27.70;;;;;;;1.48;84.67;100248.25;5012529;28;20044;-22
2022/03/09 06:14:11;;;;;;;57.25;28.15;;;;;;;1.71;84.14;100252.97;5029873;28;20061;-20
2022/03/09 06:16:37;;;;;;;50.88;23.88;;;;;;;1.59;83.53;100248.00;5030434;28;20068;-20
2022/03/09 06:19:02;;;;;;;54.08;25.75;;;;;;;1.27;85.30;100260.91;5029605;28;20038;-20
2022/03/09 06:21:28;;;;;;;51.67;25.33;;;;;;;1.15;86.14;100255.09;5029884;28;20052;-20
2022/03/09 06:23:53;;;;;;;55.28;28.10;;;;;;;1.30;85.57;100258.00;5029826;28;20040;-20
2022/03/09 06:26:18;;;;;;;53.35;26.02;;;;;;;1.09;85.33;100242.59;5029942;28;20040;-20
2022/03/09 06:28:44;;;;;;;54.42;26.55;;;;;;;0.83;86.67;100248.59;5030208;28;20041;-21
2022/03/09 06:31:09;;;;;;;60.28;27.55;;;;;;;0.93;87.32;100251.97;5029806;28;20048;-20
2022/03/09 06:33:35;;;;;;;58.78;28.00;;;;;;;0.94;88.04;100252.78;5028926;28;20417;-20
2022/03/09 06:36:00;;;;;;;58.72;28.00;;;;;;;0.73;87.60;100259.16;5029418;28;20025;-20
2022/03/09 06:38:26;;;;;;;59.83;30.17;;;;;;;1.03;87.63;100251.88;5029741;28;20528;-21
2022/03/09 06:40:51;;;;;;;59.08;26.95;;;;;;;0.90;86.45;100260.16;5029416;28;20036;-20
2022/03/09 06:43:17;;;;;;;49.20;24.25;;;;;;;0.82;86.95;100264.50;5029585;28;20042;-20
2022/03/09 06:45:42;;;;;;;62.83;29.25;;;;;;;0.99;87.26;100264.50;5029298;28;20037;-20
2022/03/09 06:48:08;;;;;;;61.60;29.67;;;;;;;1.29;86.41;100261.59;5029411;28;20041;-20
2022/03/09 06:50:34;;;;;;;54.95;25.75;;;;;;;1.09;85.26;100263.59;5029057;28;20509;-19
2022/03/09 06:53:00;;;;;;;55.40;26.80;;;;;;;0.77;87.56;100249.19;5029198;28;20045;-21
2022/03/09 06:55:25;;;;;;;59.42;28.13;;;;;;;1.06;86.05;100258.63;5029344;28;20030;-19
2022/03/09 06:57:51;;;;;;;57.17;27.58;;;;;;;1.54;85.55;100273.91;5029295;28;20105;-20
2022/03/09 07:00:16;;;;;;;60.97;29.10;;;;;;;1.50;84.37;100277.84;5029210;28;20041;-20
2022/03/09 07:02:42;;;;;;;64.10;32.58;;;;;;;1.39;85.39;100283.34;5029134;28;20042;-20
2022/03/09 07:05:08;;;;;;;63.13;28.75;;;;;;;1.33;85.78;100273.47;5028870;28;20516;-20
2022/03/09 07:07:34;;;;;;;64.00;29.75;;;;;;;1.57;84.84;100272.78;5011184;28;20037;-20
2022/03/09 07:09:59;;;;;;;64.32;30.45;;;;;;;1.63;84.84;100279.22;5011364;28;20036;-20
2022/03/09 07:12:25;;;;;;;60.97;29.00;;;;;;;1.75;84.04;100285.88;5010765;28;20049;-20
2022/03/09 07:14:51;;;;;;;64.22;28.77;;;;;;;1.49;84.45;100285.88;5010919;28;20631;-20
2022/03/09 07:17:16;;;;;;;51.20;26.10;;;;;;;1.54;85.02;100279.16;5029158;28;20044;-20
2022/03/09 07:19:42;;;;;;;60.65;28.27;;;;;;;1.59;83.81;100260.31;5010770;28;20512;-20
2022/03/09 07:22:07;;;;;;;52.08;26.67;;;;;;;1.45;83.74;100258.25;5011214;28;20485;-20
2022/03/09 07:24:33;;;;;;;53.03;25.23;;;;;;;1.65;83.43;100269.38;5010905;28;20029;-20
2022/03/09 07:26:59;;;;;;;64.78;30.52;;;;;;;1.81;82.43;100267.66;5028456;28;20033;-20
2022/03/09 07:29:24;;;;;;;47.78;23.33;;;;;;;1.65;82.70;100274.63;5028469;28;20040;-19
2022/03/09 07:31:50;;;;;;;55.15;25.60;;;;;;;1.57;83.48;100273.63;5028604;28;20833;-20
2022/03/09 07:34:16;;;;;;;67.28;33.58;;;;;;;1.94;83.11;100277.75;5010438;28;20034;-20
2022/03/09 07:36:41;;;;;;;38.88;20.55;;;;;;;1.64;80.53;100265.13;5028707;28;20038;-20
2022/03/09 07:39:07;;;;;;;54.60;24.60;;;;;;;1.52;81.98;100286.38;5028582;28;20038;-20
2022/03/09 07:41:32;;;;;;;44.88;22.80;;;;;;;1.37;82.29;100256.41;5010585;28;20033;-20
2022/03/09 07:43:58;;;;;;;48.53;24.63;;;;;;;1.72;82.57;100271.22;5028891;28;20037;-20
2022/03/09 07:46:23;;;;;;;53.75;25.33;;;;;;;1.72;82.68;100281.75;5027367;28;20029;-21
2022/03/09 07:48:49;;;;;;;49.42;26.10;;;;;;;1.54;82.32;100279.16;5028004;28;20040;-20
2022/03/09 07:51:14;;;;;;;50.50;25.55;;;;;;;1.73;83.22;100272.03;5010647;28;20103;-19
2022/03/09 07:53:42;;;;;;;47.92;24.20;;;;;;;1.59;82.29;100282.19;5028209;28;20425;-20
2022/03/09 07:56:11;;;;;;;;;;;;;;;1.74;81.93;100273.72;5028636;28;20021;-21
2022/03/09 07:58:37;;;;;;;46.65;23.88;;;;;;;1.86;80.83;100272.47;5010535;28;19921;-20
2022/03/09 08:01:03;;;;;;;45.75;23.60;;;;;;;1.84;81.40;100274.41;5027830;28;20026;-20
2022/03/09 08:03:28;;;;;;;42.53;19.73;;;;;;;1.88;80.15;100267.88;5027919;28;20112;-20
2022/03/09 08:05:54;;;;;;;48.42;23.70;;;;;;;2.00;81.58;100274.50;5028338;28;20026;-20
2022/03/09 08:08:19;;;;;;;52.80;26.17;;;;;;;2.34;82.46;100270.97;5027993;28;20099;-20
2022/03/09 08:10:44;;;;;;;49.25;25.42;;;;;;;2.46;79.02;100252.28;5027924;28;20044;-20
2022/03/09 08:13:10;;;;;;;43.60;23.88;;;;;;;2.98;78.01;100257.25;5027583;28;20523;-20
2022/03/09 08:15:37;;;;;;;52.45;25.40;;;;;;;2.78;78.43;100269.94;5027811;28;20034;-21
2022/03/09 08:18:03;;;;;;;49.72;24.98;;;;;;;2.57;77.98;100270.38;5027622;28;20065;-20
2022/03/09 08:20:29;;;;;;;37.35;18.02;;;;;;;2.36;78.40;100263.75;5010055;28;20456;-20
2022/03/09 08:22:54;;;;;;;45.17;21.48;;;;;;;2.26;77.70;100255.16;5028062;28;20103;-20
2022/03/09 08:25:20;;;;;;;49.67;25.27;;;;;;;2.64;78.95;100268.75;5028073;28;20033;-20
2022/03/09 08:27:45;;;;;;;43.60;22.52;;;;;;;2.29;77.46;100256.66;5027717;28;20041;-20
2022/03/09 08:30:11;;;;;;;47.58;24.73;;;;;;;2.24;79.34;100249.25;5027663;28;20040;-20
2022/03/09 08:32:36;;;;;;;45.70;23.33;;;;;;;2.28;79.13;100255.03;5027472;28;20508;-21
2022/03/09 08:35:02;;;;;;;46.70;23.30;;;;;;;2.54;77.84;100241.75;5027609;28;20029;-20
2022/03/09 08:37:27;;;;;;;42.88;22.80;;;;;;;2.83;76.93;100240.47;5027453;28;20092;-20
2022/03/09 08:39:53;;;;;;;39.22;20.77;;;;;;;2.77;75.61;100250.66;5028046;28;20041;-20
2022/03/09 08:42:18;;;;;;;44.00;23.23;;;;;;;2.57;76.08;100244.06;5027896;28;20401;-20
2022/03/09 08:44:44;;;;;;;48.53;25.17;;;;;;;3.08;77.56;100255.28;5027682;28;20033;-19
2022/03/09 08:47:09;;;;;;;37.90;19.08;;;;;;;2.90;75.34;100259.88;5027099;28;20048;-20
2022/03/09 08:49:39;;;;;;;46.60;23.98;;;;;;;2.73;76.92;100257.25;5027668;28;20088;-20
2022/03/09 08:52:05;;;;;;;45.30;23.38;;;;;;;2.47;77.38;100248.63;5027876;28;20041;-20
2022/03/09 08:54:31;;;;;;;40.08;18.83;;;;;;;2.37;76.73;100262.78;5027738;28;20121;-19
2022/03/09 08:56:56;;;;;;;47.60;24.15;;;;;;;2.45;77.29;100234.81;5028366;28;20116;-20
2022/03/09 08:59:22;;;;;;;46.75;24.40;;;;;;;2.69;77.53;100237.47;5031689;28;20394;-20
2022/03/09 09:01:47;;;;;;;44.05;23.52;;;;;;;3.04;76.96;100238.16;5031012;28;20033;-21
2022/03/09 09:04:14;;;;;;;39.55;21.55;;;;;;;3.12;73.89;100253.13;5031592;28;20036;-20
2022/03/09 09:06:39;;;;;;;40.78;21.75;;;;;;;3.22;74.86;100248.50;5031432;28;20030;-20
2022/03/09 09:09:05;;;;;;;41.00;21.67;;;;;;;3.43;73.55;100250.63;5031009;28;20092;-20
2022/03/09 09:11:30;;;;;;;34.88;18.88;;;;;;;3.33;74.05;100247.34;5031189;28;20038;-20
2022/03/09 09:13:56;;;;;;;40.20;23.02;;;;;;;3.45;75.31;100250.47;5030948;28;20076;-20
2022/03/09 09:16:21;;;;;;;35.78;20.40;;;;;;;3.70;74.05;100243.31;5030831;28;20026;-20
2022/03/09 09:18:47;;;;;;;39.88;21.35;;;;;;;4.01;74.21;100244.19;5030823;28;20041;-20
2022/03/09 09:21:13;;;;;;;36.08;20.70;;;;;;;4.36;72.98;100252.59;5031093;28;20033;-20
2022/03/09 09:23:39;;;;;;;37.65;21.75;;;;;;;4.13;74.83;100246.47;5013370;28;20041;-20
2022/03/09 09:26:05;;;;;;;41.08;22.05;;;;;;;4.05;71.58;100238.59;5013005;28;20120;-20
2022/03/09 09:28:30;;;;;;;40.67;20.67;;;;;;;4.29;70.67;100251.66;5013111;28;20069;-21
2022/03/09 09:30:56;;;;;;;39.03;21.15;;;;;;;4.14;70.90;100238.34;5030017;28;20114;-20
2022/03/09 09:33:22;;;;;;;40.00;21.77;;;;;;;4.39;71.33;100252.25;5030530;28;20771;-20
2022/03/09 09:35:48;;;;;;;40.35;22.52;;;;;;;4.30;70.07;100258.56;5030128;28;20025;-21
2022/03/09 09:38:13;;;;;;;40.72;21.92;;;;;;;4.20;71.70;100255.31;5030264;28;20470;-20
2022/03/09 09:40:45;;;;;;;39.58;20.98;;;;;;;4.25;71.13;100255.63;5030204;28;20062;-20
2022/03/09 09:43:11;;;;;;;38.83;20.77;;;;;;;4.25;69.27;100255.63;5011679;28;20045;-20
2022/03/09 09:45:37;;;;;;;36.72;20.10;;;;;;;4.27;68.71;100248.38;5029786;28;20052;-20
2022/03/09 09:48:03;;;;;;;35.10;19.15;;;;;;;4.12;67.65;100255.34;5029777;28;20122;-20
2022/03/09 09:50:29;;;;;;;37.05;20.50;;;;;;;4.39;65.98;100251.41;5012233;28;20045;-20
2022/03/09 09:52:54;;;;;;;36.83;19.85;;;;;;;4.62;66.60;100240.91;5011793;28;20112;-19
2022/03/09 09:55:20;;;;;;;39.25;21.90;;;;;;;4.86;66.87;100226.66;5029398;28;20025;-20
2022/03/09 09:57:48;;;;;;;37.67;21.08;;;;;;;5.03;67.66;100245.88;5022283;28;20485;-20
2022/03/09 10:00:14;;;;;;;42.13;22.98;;;;;;;4.96;68.37;100226.41;5012286;28;20040;-20
2022/03/09 10:02:42;;;;;;;39.63;20.58;;;;;;;4.51;66.10;100228.09;5030403;28;20022;-21
2022/03/09 10:05:12;;;;;;;38.03;20.50;;;;;;;4.52;69.81;100212.06;5030292;28;20087;-21
2022/03/09 10:08:03;;;;;;;42.25;22.13;;;;;;;5.16;70.46;100238.13;5028566;28;20045;-20
2022/03/09 10:10:35;;;;;;;35.50;20.45;;;;;;;5.39;65.95;100227.53;5016554;28;20064;-20
2022/03/09 10:13:14;;;;;;;36.63;21.48;;;;;;;5.37;64.95;100236.63;5011344;28;20061;-21
2022/03/09 10:15:39;;;;;;;38.08;21.92;;;;;;;5.41;63.49;100232.63;5011559;28;20036;-20
2022/03/09 10:18:15;;;;;;;35.78;21.73;;;;;;;5.52;66.34;100229.53;5029470;28;20041;-20
2022/03/09 10:20:41;;;;;;;31.45;18.08;;;;;;;5.38;61.44;100193.31;5029561;28;20029;-20
2022/03/09 10:23:08;;;;;;;33.22;21.17;;;;;;;5.33;62.17;100203.59;5029315;28;20370;-20
2022/03/09 10:25:34;;;;;;;36.22;21.10;;;;;;;5.52;63.40;100215.50;5029986;28;20075;-20
2022/03/09 10:28:00;;;;;;;34.97;20.30;;;;;;;5.49;62.10;100216.66;5030185;28;20045;-20
2022/03/09 10:30:32;;;;;;;35.53;20.38;;;;;;;5.84;63.17;100199.25;5012030;28;20037;-20
2022/03/09 10:32:58;;;;;;;31.77;18.67;;;;;;;6.06;60.25;100214.38;5028198;28;20030;-20
2022/03/09 10:35:29;;;;;;;32.88;18.23;;;;;;;5.85;60.09;100215.94;5029376;28;20028;-20
2022/03/09 10:37:55;;;;;;;31.25;17.77;;;;;;;5.84;59.28;100216.91;5029441;28;20029;-20
2022/03/09 10:40:21;;;;;;;43.90;20.27;;;;;;;5.91;57.92;100223.13;5011739;28;20603;-19
2022/03/09 10:42:47;;;;;;;43.95;21.10;;;;;;;6.13;58.25;100213.47;5029432;28;20033;-20
2022/03/09 10:45:13;;;;;;;41.60;19.85;;;;;;;6.40;57.02;100214.56;5029491;28;20068;-20
2022/03/09 10:47:43;;;;;;;28.25;16.42;;;;;;;6.11;56.78;100188.16;5028030;28;20033;-20
2022/03/09 10:50:09;;;;;;;34.88;18.08;;;;;;;6.58;58.48;100197.44;5029116;28;20040;-20
2022/03/09 10:53:11;;;;;;;28.88;15.38;;;;;;;6.63;56.70;100197.66;5028599;28;20056;-20
2022/03/09 10:55:36;;;;;;;31.35;16.48;;;;;;;6.48;56.37;100194.25;5007236;28;20138;-20
2022/03/09 10:58:18;;;;;;;29.02;17.35;;;;;;;6.84;53.77;100195.00;5029264;28;20064;-20
2022/03/09 11:00:51;;;;;;;28.10;16.67;;;;;;;7.04;52.50;100191.69;5029155;28;20040;-20
2022/03/09 11:03:25;;;;;;;24.75;15.02;;;;;;;7.73;51.79;100182.13;5027952;28;20517;-20
2022/03/09 11:05:54;;;;;;;27.60;17.95;;;;;;;7.98;55.30;100185.06;5027905;28;20033;-20
2022/03/09 11:08:21;;;;;;;28.58;16.90;;;;;;;8.57;55.21;100184.41;5029070;28;20083;-20
2022/03/09 11:10:47;;;;;;;23.98;14.25;;;;;;;7.44;49.79;100181.34;5028862;28;20060;-22
2022/03/09 11:13:13;;;;;;;27.13;16.60;;;;;;;7.08;52.38;100184.16;5010823;28;20059;-20
2022/03/09 11:15:42;;;;;;;27.60;16.35;;;;;;;6.64;54.36;100162.22;5011197;28;20029;-20